sensor_id;sensor_type;location;lat;lon;timestamp;pressure;altitude;pressure_sealevel;temperature;humidity
69223;BME280;56514;51.816;-0.026;2023-08-12T00:01:50;100955.53;;;19.74;61.81
69223;BME280;56514;51.816;-0.026;2023-08-12T00:04:34;100961.19;;;19.71;62.43
69223;BME280;56514;51.816;-0.026;2023-08-12T00:07:19;100955.22;;;19.60;62.58
69223;BME280;56514;51.816;-0.026;2023-08-12T00:10:04;100956.72;;;19.54;61.79
69223;BME280;56514;51.816;-0.026;2023-08-12T00:12:50;100949.47;;;19.47;61.85
69223;BME280;56514;51.816;-0.026;2023-08-12T00:15:35;100952.44;;;19.44;62.44
69223;BME280;56514;51.816;-0.026;2023-08-12T00:18:20;100949.69;;;19.36;62.34
69223;BME280;56514;51.816;-0.026;2023-08-12T00:21:08;100947.47;;;19.31;62.04
69223;BME280;56514;51.816;-0.026;2023-08-12T00:23:54;100948.66;;;19.29;61.98
69223;BME280;56514;51.816;-0.026;2023-08-12T00:26:39;100949.06;;;19.24;61.93
69223;BME280;56514;51.816;-0.026;2023-08-12T00:29:24;100949.69;;;19.18;61.85
69223;BME280;56514;51.816;-0.026;2023-08-12T00:32:09;100944.66;;;19.15;61.45
69223;BME280;56514;51.816;-0.026;2023-08-12T00:34:54;100945.94;;;19.11;61.40
69223;BME280;56514;51.816;-0.026;2023-08-12T00:37:38;100939.38;;;19.05;61.65
69223;BME280;56514;51.816;-0.026;2023-08-12T00:40:26;100947.00;;;19.00;62.03
69223;BME280;56514;51.816;-0.026;2023-08-12T00:43:10;100942.25;;;18.94;62.41
69223;BME280;56514;51.816;-0.026;2023-08-12T00:45:56;100933.69;;;18.91;62.34
69223;BME280;56514;51.816;-0.026;2023-08-12T00:48:41;100941.19;;;18.87;62.59
69223;BME280;56514;51.816;-0.026;2023-08-12T00:51:27;100929.81;;;18.85;62.65
69223;BME280;56514;51.816;-0.026;2023-08-12T00:54:14;100928.16;;;18.84;62.73
69223;BME280;56514;51.816;-0.026;2023-08-12T00:56:59;100926.44;;;18.83;62.74
69223;BME280;56514;51.816;-0.026;2023-08-12T00:59:44;100932.94;;;18.81;62.61
69223;BME280;56514;51.816;-0.026;2023-08-12T01:02:29;100925.06;;;18.79;62.65
69223;BME280;56514;51.816;-0.026;2023-08-12T01:05:15;100927.06;;;18.77;62.64
69223;BME280;56514;51.816;-0.026;2023-08-12T01:08:02;100922.84;;;18.75;63.07
69223;BME280;56514;51.816;-0.026;2023-08-12T01:10:58;100932.69;;;18.74;63.09
69223;BME280;56514;51.816;-0.026;2023-08-12T01:16:45;100926.28;;;18.67;63.36
69223;BME280;56514;51.816;-0.026;2023-08-12T01:19:35;100924.91;;;18.63;63.43
69223;BME280;56514;51.816;-0.026;2023-08-12T01:22:22;100926.19;;;18.59;63.73
69223;BME280;56514;51.816;-0.026;2023-08-12T01:25:08;100929.00;;;18.58;63.96
69223;BME280;56514;51.816;-0.026;2023-08-12T01:27:53;100916.97;;;18.54;64.63
69223;BME280;56514;51.816;-0.026;2023-08-12T01:30:46;100913.03;;;18.48;64.80
69223;BME280;56514;51.816;-0.026;2023-08-12T01:33:42;100917.72;;;18.46;64.83
69223;BME280;56514;51.816;-0.026;2023-08-12T01:36:31;100916.00;;;18.45;65.30
69223;BME280;56514;51.816;-0.026;2023-08-12T01:39:19;100913.94;;;18.39;65.03
69223;BME280;56514;51.816;-0.026;2023-08-12T01:42:05;100907.94;;;18.37;65.37
69223;BME280;56514;51.816;-0.026;2023-08-12T01:44:50;100911.84;;;18.33;65.42
69223;BME280;56514;51.816;-0.026;2023-08-12T01:47:35;100907.78;;;18.29;65.52
69223;BME280;56514;51.816;-0.026;2023-08-12T01:50:19;100913.44;;;18.26;66.12
69223;BME280;56514;51.816;-0.026;2023-08-12T01:53:06;100904.50;;;18.18;66.32
69223;BME280;56514;51.816;-0.026;2023-08-12T01:55:51;100900.56;;;18.12;66.63
69223;BME280;56514;51.816;-0.026;2023-08-12T01:58:36;100897.34;;;18.09;66.51
69223;BME280;56514;51.816;-0.026;2023-08-12T02:01:21;100903.25;;;18.03;66.62
69223;BME280;56514;51.816;-0.026;2023-08-12T02:04:06;100902.88;;;17.98;67.39
69223;BME280;56514;51.816;-0.026;2023-08-12T02:06:50;100904.28;;;17.92;66.82
69223;BME280;56514;51.816;-0.026;2023-08-12T02:09:36;100901.91;;;17.89;67.38
69223;BME280;56514;51.816;-0.026;2023-08-12T02:12:20;100899.84;;;17.83;68.01
69223;BME280;56514;51.816;-0.026;2023-08-12T02:15:05;100904.66;;;17.80;68.16
69223;BME280;56514;51.816;-0.026;2023-08-12T02:17:51;100905.06;;;17.75;68.66
69223;BME280;56514;51.816;-0.026;2023-08-12T02:20:35;100894.44;;;17.66;68.83
69223;BME280;56514;51.816;-0.026;2023-08-12T02:23:20;100897.63;;;17.69;69.71
69223;BME280;56514;51.816;-0.026;2023-08-12T02:26:04;100895.31;;;17.57;69.45
69223;BME280;56514;51.816;-0.026;2023-08-12T02:28:49;100890.66;;;17.59;69.72
69223;BME280;56514;51.816;-0.026;2023-08-12T02:31:34;100894.31;;;17.48;69.66
69223;BME280;56514;51.816;-0.026;2023-08-12T02:34:18;100893.88;;;17.52;70.53
69223;BME280;56514;51.816;-0.026;2023-08-12T02:37:03;100901.38;;;17.49;70.80
69223;BME280;56514;51.816;-0.026;2023-08-12T02:39:49;100897.41;;;17.53;70.66
69223;BME280;56514;51.816;-0.026;2023-08-12T02:42:34;100909.34;;;17.39;70.77
69223;BME280;56514;51.816;-0.026;2023-08-12T02:45:19;100903.00;;;17.40;71.48
69223;BME280;56514;51.816;-0.026;2023-08-12T02:48:04;100904.69;;;17.61;70.76
69223;BME280;56514;51.816;-0.026;2023-08-12T02:50:49;100896.41;;;17.64;70.85
69223;BME280;56514;51.816;-0.026;2023-08-12T02:53:33;100910.53;;;17.74;70.67
69223;BME280;56514;51.816;-0.026;2023-08-12T02:56:18;100904.41;;;17.64;70.89
69223;BME280;56514;51.816;-0.026;2023-08-12T02:59:03;100904.41;;;17.54;71.52
69223;BME280;56514;51.816;-0.026;2023-08-12T03:01:47;100904.00;;;17.39;71.64
69223;BME280;56514;51.816;-0.026;2023-08-12T03:04:32;100905.81;;;17.39;72.49
69223;BME280;56514;51.816;-0.026;2023-08-12T03:07:17;100907.53;;;17.30;72.21
69223;BME280;56514;51.816;-0.026;2023-08-12T03:10:02;100908.25;;;17.23;72.88
69223;BME280;56514;51.816;-0.026;2023-08-12T03:12:47;100910.06;;;17.22;72.83
69223;BME280;56514;51.816;-0.026;2023-08-12T03:15:32;100903.47;;;17.17;73.23
69223;BME280;56514;51.816;-0.026;2023-08-12T03:18:16;100909.53;;;17.09;72.98
69223;BME280;56514;51.816;-0.026;2023-08-12T03:21:05;100903.06;;;17.02;74.01
69223;BME280;56514;51.816;-0.026;2023-08-12T03:23:50;100906.72;;;17.01;74.03
69223;BME280;56514;51.816;-0.026;2023-08-12T03:26:35;100907.56;;;16.92;74.27
69223;BME280;56514;51.816;-0.026;2023-08-12T03:29:19;100906.69;;;16.92;74.37
69223;BME280;56514;51.816;-0.026;2023-08-12T03:32:04;100904.63;;;17.05;73.74
69223;BME280;56514;51.816;-0.026;2023-08-12T03:34:49;100902.78;;;17.05;73.67
69223;BME280;56514;51.816;-0.026;2023-08-12T03:37:34;100904.72;;;17.13;73.18
69223;BME280;56514;51.816;-0.026;2023-08-12T03:40:19;100908.66;;;17.09;73.36
69223;BME280;56514;51.816;-0.026;2023-08-12T03:43:03;100901.38;;;17.01;73.21
69223;BME280;56514;51.816;-0.026;2023-08-12T03:45:49;100893.81;;;16.97;73.82
69223;BME280;56514;51.816;-0.026;2023-08-12T03:48:33;100899.97;;;16.97;73.99
69223;BME280;56514;51.816;-0.026;2023-08-12T03:51:18;100900.38;;;17.12;73.65
69223;BME280;56514;51.816;-0.026;2023-08-12T03:54:03;100905.28;;;17.16;73.11
69223;BME280;56514;51.816;-0.026;2023-08-12T03:56:48;100901.06;;;17.23;73.16
69223;BME280;56514;51.816;-0.026;2023-08-12T03:59:33;100898.97;;;17.36;72.27
69223;BME280;56514;51.816;-0.026;2023-08-12T04:02:18;100894.19;;;17.40;71.83
69223;BME280;56514;51.816;-0.026;2023-08-12T04:05:02;100902.88;;;17.42;72.09
69223;BME280;56514;51.816;-0.026;2023-08-12T04:07:48;100893.78;;;17.35;71.92
69223;BME280;56514;51.816;-0.026;2023-08-12T04:10:33;100893.06;;;17.33;72.31
69223;BME280;56514;51.816;-0.026;2023-08-12T04:13:18;100891.09;;;17.25;72.01
69223;BME280;56514;51.816;-0.026;2023-08-12T04:16:03;100893.22;;;17.22;72.32
69223;BME280;56514;51.816;-0.026;2023-08-12T04:18:49;100891.97;;;17.26;72.39
69223;BME280;56514;51.816;-0.026;2023-08-12T04:21:33;100884.25;;;17.23;71.97
69223;BME280;56514;51.816;-0.026;2023-08-12T04:24:18;100896.72;;;17.22;72.20
69223;BME280;56514;51.816;-0.026;2023-08-12T04:27:03;100890.81;;;17.28;71.84
69223;BME280;56514;51.816;-0.026;2023-08-12T04:29:47;100883.91;;;17.35;71.95
69223;BME280;56514;51.816;-0.026;2023-08-12T04:32:32;100888.31;;;17.46;71.60
69223;BME280;56514;51.816;-0.026;2023-08-12T04:35:17;100887.69;;;17.62;70.82
69223;BME280;56514;51.816;-0.026;2023-08-12T04:38:02;100885.44;;;17.57;70.80
69223;BME280;56514;51.816;-0.026;2023-08-12T04:40:48;100888.97;;;17.58;70.91
69223;BME280;56514;51.816;-0.026;2023-08-12T04:43:32;100877.56;;;17.65;69.89
69223;BME280;56514;51.816;-0.026;2023-08-12T04:46:17;100877.16;;;17.60;70.39
69223;BME280;56514;51.816;-0.026;2023-08-12T04:49:02;100879.66;;;17.71;70.06
69223;BME280;56514;51.816;-0.026;2023-08-12T04:51:48;100882.91;;;17.65;70.07
69223;BME280;56514;51.816;-0.026;2023-08-12T04:54:33;100880.09;;;17.67;69.97
69223;BME280;56514;51.816;-0.026;2023-08-12T04:57:17;100878.28;;;17.67;69.91
69223;BME280;56514;51.816;-0.026;2023-08-12T05:00:03;100873.47;;;17.71;69.97
69223;BME280;56514;51.816;-0.026;2023-08-12T05:02:50;100871.25;;;17.66;69.80
69223;BME280;56514;51.816;-0.026;2023-08-12T05:05:36;100866.94;;;17.56;69.77
69223;BME280;56514;51.816;-0.026;2023-08-12T05:08:21;100880.69;;;17.51;70.22
69223;BME280;56514;51.816;-0.026;2023-08-12T05:11:06;100878.59;;;17.55;70.19
69223;BME280;56514;51.816;-0.026;2023-08-12T05:13:50;100878.88;;;17.61;70.38
69223;BME280;56514;51.816;-0.026;2023-08-12T05:16:35;100867.19;;;17.62;70.50
69223;BME280;56514;51.816;-0.026;2023-08-12T05:19:19;100865.03;;;17.75;69.77
69223;BME280;56514;51.816;-0.026;2023-08-12T05:22:05;100857.00;;;17.85;69.75
69223;BME280;56514;51.816;-0.026;2023-08-12T05:24:49;100856.09;;;17.94;69.38
69223;BME280;56514;51.816;-0.026;2023-08-12T05:27:34;100852.03;;;17.99;68.98
69223;BME280;56514;51.816;-0.026;2023-08-12T05:30:20;100853.09;;;18.06;68.65
69223;BME280;56514;51.816;-0.026;2023-08-12T05:33:05;100856.84;;;18.13;68.64
69223;BME280;56514;51.816;-0.026;2023-08-12T05:35:50;100851.34;;;18.15;68.32
69223;BME280;56514;51.816;-0.026;2023-08-12T05:38:35;100844.34;;;18.14;67.86
69223;BME280;56514;51.816;-0.026;2023-08-12T05:41:19;100845.50;;;18.11;67.77
69223;BME280;56514;51.816;-0.026;2023-08-12T05:44:05;100853.81;;;18.08;68.07
69223;BME280;56514;51.816;-0.026;2023-08-12T05:46:52;100848.47;;;18.08;68.03
69223;BME280;56514;51.816;-0.026;2023-08-12T05:49:36;100856.47;;;18.08;68.12
69223;BME280;56514;51.816;-0.026;2023-08-12T05:52:21;100863.47;;;18.09;67.92
69223;BME280;56514;51.816;-0.026;2023-08-12T05:55:06;100854.63;;;18.09;68.03
69223;BME280;56514;51.816;-0.026;2023-08-12T05:57:51;100845.34;;;18.13;67.91
69223;BME280;56514;51.816;-0.026;2023-08-12T06:00:36;100849.94;;;18.20;67.66
69223;BME280;56514;51.816;-0.026;2023-08-12T06:03:20;100851.09;;;18.35;67.79
69223;BME280;56514;51.816;-0.026;2023-08-12T06:06:05;100851.38;;;18.59;67.70
69223;BME280;56514;51.816;-0.026;2023-08-12T06:08:50;100857.09;;;18.82;67.18
69223;BME280;56514;51.816;-0.026;2023-08-12T06:11:35;100858.69;;;18.92;66.79
69223;BME280;56514;51.816;-0.026;2023-08-12T06:14:20;100855.63;;;19.05;66.53
69223;BME280;56514;51.816;-0.026;2023-08-12T06:17:05;100850.34;;;19.13;66.32
69223;BME280;56514;51.816;-0.026;2023-08-12T06:19:50;100854.75;;;19.22;66.10
69223;BME280;56514;51.816;-0.026;2023-08-12T06:22:35;100862.78;;;19.40;66.22
69223;BME280;56514;51.816;-0.026;2023-08-12T06:25:20;100865.41;;;19.57;65.67
69223;BME280;56514;51.816;-0.026;2023-08-12T06:28:05;100861.28;;;19.71;65.04
69223;BME280;56514;51.816;-0.026;2023-08-12T06:30:50;100852.31;;;19.80;64.68
69223;BME280;56514;51.816;-0.026;2023-08-12T06:33:35;100847.69;;;19.90;63.54
69223;BME280;56514;51.816;-0.026;2023-08-12T06:36:19;100848.38;;;19.66;64.34
69223;BME280;56514;51.816;-0.026;2023-08-12T06:39:04;100847.53;;;19.58;64.74
69223;BME280;56514;51.816;-0.026;2023-08-12T06:41:49;100854.91;;;19.64;64.70
69223;BME280;56514;51.816;-0.026;2023-08-12T06:44:37;100850.53;;;19.63;64.95
69223;BME280;56514;51.816;-0.026;2023-08-12T06:47:22;100863.66;;;19.74;64.45
69223;BME280;56514;51.816;-0.026;2023-08-12T06:50:08;100855.31;;;19.77;64.50
69223;BME280;56514;51.816;-0.026;2023-08-12T06:52:53;100849.84;;;19.86;64.05
69223;BME280;56514;51.816;-0.026;2023-08-12T06:55:43;100850.44;;;19.72;64.55
69223;BME280;56514;51.816;-0.026;2023-08-12T06:58:28;100842.44;;;19.80;64.04
69223;BME280;56514;51.816;-0.026;2023-08-12T07:01:13;100841.91;;;19.77;64.65
69223;BME280;56514;51.816;-0.026;2023-08-12T07:03:58;100841.00;;;19.94;63.58
69223;BME280;56514;51.816;-0.026;2023-08-12T07:06:43;100844.13;;;20.15;63.25
69223;BME280;56514;51.816;-0.026;2023-08-12T07:09:28;100845.13;;;20.14;63.39
69223;BME280;56514;51.816;-0.026;2023-08-12T07:12:13;100851.19;;;20.24;62.60
69223;BME280;56514;51.816;-0.026;2023-08-12T07:14:58;100851.66;;;20.19;62.51
69223;BME280;56514;51.816;-0.026;2023-08-12T07:17:43;100855.09;;;20.04;63.28
69223;BME280;56514;51.816;-0.026;2023-08-12T07:20:28;100857.97;;;20.10;63.63
69223;BME280;56514;51.816;-0.026;2023-08-12T07:23:14;100851.91;;;20.34;62.44
69223;BME280;56514;51.816;-0.026;2023-08-12T07:25:59;100845.38;;;20.52;61.95
69223;BME280;56514;51.816;-0.026;2023-08-12T07:28:44;100855.91;;;20.38;62.27
69223;BME280;56514;51.816;-0.026;2023-08-12T07:31:29;100851.91;;;20.42;62.18
69223;BME280;56514;51.816;-0.026;2023-08-12T07:34:14;100854.06;;;20.46;62.02
69223;BME280;56514;51.816;-0.026;2023-08-12T07:36:59;100853.59;;;20.51;61.49
69223;BME280;56514;51.816;-0.026;2023-08-12T07:39:44;100845.88;;;20.48;61.58
69223;BME280;56514;51.816;-0.026;2023-08-12T07:42:29;100849.09;;;20.59;60.54
69223;BME280;56514;51.816;-0.026;2023-08-12T07:45:14;100861.81;;;20.57;61.13
69223;BME280;56514;51.816;-0.026;2023-08-12T07:47:59;100848.44;;;20.65;61.07
69223;BME280;56514;51.816;-0.026;2023-08-12T07:50:44;100854.66;;;20.82;60.40
69223;BME280;56514;51.816;-0.026;2023-08-12T07:53:29;100856.66;;;20.88;59.97
69223;BME280;56514;51.816;-0.026;2023-08-12T07:56:13;100841.25;;;20.90;59.85
69223;BME280;56514;51.816;-0.026;2023-08-12T07:58:58;100842.63;;;21.02;59.05
69223;BME280;56514;51.816;-0.026;2023-08-12T08:01:43;100833.38;;;21.21;58.23
69223;BME280;56514;51.816;-0.026;2023-08-12T08:04:28;100841.75;;;21.42;57.57
69223;BME280;56514;51.816;-0.026;2023-08-12T08:07:12;100827.63;;;21.56;57.90
69223;BME280;56514;51.816;-0.026;2023-08-12T08:09:58;100838.72;;;22.07;56.16
69223;BME280;56514;51.816;-0.026;2023-08-12T08:12:43;100837.25;;;22.27;55.31
69223;BME280;56514;51.816;-0.026;2023-08-12T08:15:28;100844.72;;;22.09;55.46
69223;BME280;56514;51.816;-0.026;2023-08-12T08:18:13;100839.66;;;22.14;53.98
69223;BME280;56514;51.816;-0.026;2023-08-12T08:20:58;100839.53;;;22.08;54.31
69223;BME280;56514;51.816;-0.026;2023-08-12T08:23:43;100831.63;;;22.06;54.56
69223;BME280;56514;51.816;-0.026;2023-08-12T08:26:28;100835.72;;;21.94;54.29
69223;BME280;56514;51.816;-0.026;2023-08-12T08:29:13;100842.00;;;21.71;54.82
69223;BME280;56514;51.816;-0.026;2023-08-12T08:31:58;100834.84;;;22.02;54.65
69223;BME280;56514;51.816;-0.026;2023-08-12T08:34:42;100827.25;;;22.13;54.73
69223;BME280;56514;51.816;-0.026;2023-08-12T08:37:27;100820.06;;;22.36;52.82
69223;BME280;56514;51.816;-0.026;2023-08-12T08:40:12;100832.41;;;22.23;53.99
69223;BME280;56514;51.816;-0.026;2023-08-12T08:43:02;100820.34;;;22.11;53.87
69223;BME280;56514;51.816;-0.026;2023-08-12T08:45:52;100817.75;;;22.03;54.82
69223;BME280;56514;51.816;-0.026;2023-08-12T08:48:38;100827.25;;;22.13;54.19
69223;BME280;56514;51.816;-0.026;2023-08-12T08:51:24;100839.25;;;22.33;52.20
69223;BME280;56514;51.816;-0.026;2023-08-12T08:54:09;100838.09;;;22.28;52.28
69223;BME280;56514;51.816;-0.026;2023-08-12T08:56:57;100829.66;;;22.31;52.00
69223;BME280;56514;51.816;-0.026;2023-08-12T08:59:42;100829.94;;;22.44;51.23
69223;BME280;56514;51.816;-0.026;2023-08-12T09:02:27;100833.09;;;22.47;51.59
69223;BME280;56514;51.816;-0.026;2023-08-12T09:05:13;100828.78;;;22.69;50.83
69223;BME280;56514;51.816;-0.026;2023-08-12T09:07:59;100829.41;;;22.94;49.83
69223;BME280;56514;51.816;-0.026;2023-08-12T09:10:46;100820.97;;;22.97;50.77
69223;BME280;56514;51.816;-0.026;2023-08-12T09:13:31;100818.97;;;23.13;49.67
69223;BME280;56514;51.816;-0.026;2023-08-12T09:16:17;100815.72;;;23.03;49.96
69223;BME280;56514;51.816;-0.026;2023-08-12T09:19:03;100817.88;;;23.08;50.60
69223;BME280;56514;51.816;-0.026;2023-08-12T09:21:54;100811.28;;;23.33;49.60
69223;BME280;56514;51.816;-0.026;2023-08-12T09:24:39;100812.84;;;23.56;49.50
69223;BME280;56514;51.816;-0.026;2023-08-12T09:27:25;100803.63;;;23.94;48.40
69223;BME280;56514;51.816;-0.026;2023-08-12T09:30:10;100814.13;;;24.18;48.14
69223;BME280;56514;51.816;-0.026;2023-08-12T09:33:04;100805.75;;;24.49;46.36
69223;BME280;56514;51.816;-0.026;2023-08-12T09:35:52;100808.13;;;24.38;46.96
69223;BME280;56514;51.816;-0.026;2023-08-12T09:38:37;100790.16;;;24.45;45.67
69223;BME280;56514;51.816;-0.026;2023-08-12T09:41:24;100790.50;;;24.56;45.69
69223;BME280;56514;51.816;-0.026;2023-08-12T09:44:09;100800.25;;;24.57;46.25
69223;BME280;56514;51.816;-0.026;2023-08-12T09:46:56;100793.63;;;24.81;45.76
69223;BME280;56514;51.816;-0.026;2023-08-12T09:49:42;100792.03;;;24.86;45.78
69223;BME280;56514;51.816;-0.026;2023-08-12T09:52:27;100797.66;;;25.12;44.24
69223;BME280;56514;51.816;-0.026;2023-08-12T09:55:16;100809.41;;;24.77;45.20
69223;BME280;56514;51.816;-0.026;2023-08-12T09:58:02;100807.47;;;24.36;45.68
69223;BME280;56514;51.816;-0.026;2023-08-12T10:00:50;100804.00;;;24.21;45.18
69223;BME280;56514;51.816;-0.026;2023-08-12T10:03:36;100817.44;;;23.99;45.34
69223;BME280;56514;51.816;-0.026;2023-08-12T10:06:21;100821.50;;;23.81;45.64
69223;BME280;56514;51.816;-0.026;2023-08-12T10:09:07;100814.44;;;23.80;45.72
69223;BME280;56514;51.816;-0.026;2023-08-12T10:11:54;100813.03;;;23.84;46.67
69223;BME280;56514;51.816;-0.026;2023-08-12T10:14:39;100810.44;;;24.05;46.18
69223;BME280;56514;51.816;-0.026;2023-08-12T10:17:25;100809.84;;;24.24;46.03
69223;BME280;56514;51.816;-0.026;2023-08-12T10:20:18;100806.03;;;24.54;46.04
69223;BME280;56514;51.816;-0.026;2023-08-12T10:23:04;100799.81;;;24.75;44.18
69223;BME280;56514;51.816;-0.026;2023-08-12T10:25:54;100802.94;;;24.57;44.41
69223;BME280;56514;51.816;-0.026;2023-08-12T10:28:42;100794.84;;;24.36;44.64
69223;BME280;56514;51.816;-0.026;2023-08-12T10:31:27;100796.28;;;24.17;45.23
69223;BME280;56514;51.816;-0.026;2023-08-12T10:34:24;100812.22;;;23.98;46.28
69223;BME280;56514;51.816;-0.026;2023-08-12T10:37:10;100815.28;;;23.66;47.18
69223;BME280;56514;51.816;-0.026;2023-08-12T10:39:55;100821.38;;;23.45;48.45
69223;BME280;56514;51.816;-0.026;2023-08-12T10:42:46;100824.72;;;23.10;50.16
69223;BME280;56514;51.816;-0.026;2023-08-12T10:45:48;100831.88;;;22.27;52.61
69223;BME280;56514;51.816;-0.026;2023-08-12T10:48:33;100828.91;;;22.14;53.68
69223;BME280;56514;51.816;-0.026;2023-08-12T10:51:17;100827.03;;;22.23;53.73
69223;BME280;56514;51.816;-0.026;2023-08-12T10:57:07;100816.47;;;22.75;52.02
69223;BME280;56514;51.816;-0.026;2023-08-12T10:59:54;100825.00;;;22.78;51.98
69223;BME280;56514;51.816;-0.026;2023-08-12T11:02:39;100826.34;;;22.60;53.23
69223;BME280;56514;51.816;-0.026;2023-08-12T11:05:36;100834.75;;;22.26;55.11
69223;BME280;56514;51.816;-0.026;2023-08-12T11:08:26;100823.13;;;22.33;55.01
69223;BME280;56514;51.816;-0.026;2023-08-12T11:11:24;100837.47;;;22.48;54.64
69223;BME280;56514;51.816;-0.026;2023-08-12T11:14:14;100820.84;;;22.53;55.00
69223;BME280;56514;51.816;-0.026;2023-08-12T11:16:59;100830.88;;;22.82;54.46
69223;BME280;56514;51.816;-0.026;2023-08-12T11:19:44;100829.72;;;22.99;54.13
69223;BME280;56514;51.816;-0.026;2023-08-12T11:22:31;100823.25;;;23.08;53.48
69223;BME280;56514;51.816;-0.026;2023-08-12T11:25:16;100830.69;;;23.43;52.82
69223;BME280;56514;51.816;-0.026;2023-08-12T11:28:02;100821.78;;;23.86;52.47
69223;BME280;56514;51.816;-0.026;2023-08-12T11:30:49;100797.38;;;24.44;50.00
69223;BME280;56514;51.816;-0.026;2023-08-12T11:33:34;100798.03;;;24.82;50.38
69223;BME280;56514;51.816;-0.026;2023-08-12T11:36:19;100795.56;;;25.14;48.00
69223;BME280;56514;51.816;-0.026;2023-08-12T11:39:04;100790.44;;;25.19;48.85
69223;BME280;56514;51.816;-0.026;2023-08-12T11:41:49;100777.63;;;25.62;48.61
69223;BME280;56514;51.816;-0.026;2023-08-12T11:44:35;100772.94;;;26.24;45.79
69223;BME280;56514;51.816;-0.026;2023-08-12T11:47:20;100772.94;;;26.31;44.83
69223;BME280;56514;51.816;-0.026;2023-08-12T11:50:05;100771.69;;;26.20;44.11
69223;BME280;56514;51.816;-0.026;2023-08-12T11:52:51;100775.13;;;26.01;44.57
69223;BME280;56514;51.816;-0.026;2023-08-12T11:55:37;100771.84;;;25.65;44.16
69223;BME280;56514;51.816;-0.026;2023-08-12T11:58:23;100767.44;;;25.02;45.66
69223;BME280;56514;51.816;-0.026;2023-08-12T12:01:09;100772.03;;;24.39;48.12
69223;BME280;56514;51.816;-0.026;2023-08-12T12:03:54;100803.19;;;23.76;50.70
69223;BME280;56514;51.816;-0.026;2023-08-12T12:06:39;100796.16;;;23.24;51.83
69223;BME280;56514;51.816;-0.026;2023-08-12T12:09:25;100784.78;;;23.36;51.25
69223;BME280;56514;51.816;-0.026;2023-08-12T12:12:10;100783.38;;;24.13;49.74
69223;BME280;56514;51.816;-0.026;2023-08-12T12:14:56;100780.72;;;24.76;47.39
69223;BME280;56514;51.816;-0.026;2023-08-12T12:17:41;100781.78;;;25.03;47.40
69223;BME280;56514;51.816;-0.026;2023-08-12T12:20:27;100775.69;;;25.43;45.96
69223;BME280;56514;51.816;-0.026;2023-08-12T12:23:15;100771.69;;;25.39;46.11
69223;BME280;56514;51.816;-0.026;2023-08-12T12:26:03;100786.28;;;25.44;45.98
69223;BME280;56514;51.816;-0.026;2023-08-12T12:28:50;100766.88;;;25.68;45.52
69223;BME280;56514;51.816;-0.026;2023-08-12T12:31:35;100762.19;;;25.90;45.97
69223;BME280;56514;51.816;-0.026;2023-08-12T12:34:21;100763.72;;;25.99;44.93
69223;BME280;56514;51.816;-0.026;2023-08-12T12:37:06;100756.31;;;26.34;45.67
69223;BME280;56514;51.816;-0.026;2023-08-12T12:39:51;100758.88;;;27.00;43.35
69223;BME280;56514;51.816;-0.026;2023-08-12T12:42:36;100745.97;;;27.09;42.08
69223;BME280;56514;51.816;-0.026;2023-08-12T12:45:20;100744.94;;;26.90;42.95
69223;BME280;56514;51.816;-0.026;2023-08-12T12:48:05;100735.50;;;26.41;44.08
69223;BME280;56514;51.816;-0.026;2023-08-12T12:50:50;100749.91;;;25.88;44.98
69223;BME280;56514;51.816;-0.026;2023-08-12T12:53:35;100753.06;;;25.50;45.66
69223;BME280;56514;51.816;-0.026;2023-08-12T12:56:19;100755.63;;;25.03;47.22
69223;BME280;56514;51.816;-0.026;2023-08-12T12:59:05;100753.94;;;24.54;48.28
69223;BME280;56514;51.816;-0.026;2023-08-12T13:01:50;100756.91;;;23.87;50.19
69223;BME280;56514;51.816;-0.026;2023-08-12T13:04:34;100750.56;;;23.45;52.01
69223;BME280;56514;51.816;-0.026;2023-08-12T13:07:20;100747.94;;;23.51;52.44
69223;BME280;56514;51.816;-0.026;2023-08-12T13:10:05;100756.53;;;23.90;51.56
69223;BME280;56514;51.816;-0.026;2023-08-12T13:12:50;100745.75;;;24.47;50.13
69223;BME280;56514;51.816;-0.026;2023-08-12T13:15:35;100748.72;;;24.94;48.66
69223;BME280;56514;51.816;-0.026;2023-08-12T13:18:20;100744.91;;;26.58;46.10
69223;BME280;56514;51.816;-0.026;2023-08-12T13:21:05;100736.66;;;28.57;41.15
69223;BME280;56514;51.816;-0.026;2023-08-12T13:23:49;100732.41;;;29.89;38.35
69223;BME280;56514;51.816;-0.026;2023-08-12T13:26:35;100722.22;;;30.96;36.87
69223;BME280;56514;51.816;-0.026;2023-08-12T13:29:20;100717.38;;;30.16;36.11
69223;BME280;56514;51.816;-0.026;2023-08-12T13:32:05;100717.53;;;28.70;38.30
69223;BME280;56514;51.816;-0.026;2023-08-12T13:34:50;100727.47;;;27.76;40.09
69223;BME280;56514;51.816;-0.026;2023-08-12T13:37:34;100730.72;;;27.47;41.02
69223;BME280;56514;51.816;-0.026;2023-08-12T13:40:20;100717.22;;;27.91;40.24
69223;BME280;56514;51.816;-0.026;2023-08-12T13:43:05;100719.53;;;27.88;38.71
69223;BME280;56514;51.816;-0.026;2023-08-12T13:45:50;100722.16;;;27.43;39.53
69223;BME280;56514;51.816;-0.026;2023-08-12T13:48:35;100729.28;;;27.25;39.26
69223;BME280;56514;51.816;-0.026;2023-08-12T13:51:20;100729.53;;;27.04;38.88
69223;BME280;56514;51.816;-0.026;2023-08-12T13:54:04;100723.66;;;26.55;40.24
69223;BME280;56514;51.816;-0.026;2023-08-12T13:56:49;100729.47;;;26.19;41.05
69223;BME280;56514;51.816;-0.026;2023-08-12T13:59:34;100731.19;;;25.79;42.42
69223;BME280;56514;51.816;-0.026;2023-08-12T14:02:18;100722.84;;;25.74;43.09
69223;BME280;56514;51.816;-0.026;2023-08-12T14:05:03;100737.19;;;26.35;42.06
69223;BME280;56514;51.816;-0.026;2023-08-12T14:07:49;100730.59;;;26.77;41.14
69223;BME280;56514;51.816;-0.026;2023-08-12T14:10:34;100723.47;;;27.15;40.69
69223;BME280;56514;51.816;-0.026;2023-08-12T14:13:18;100715.34;;;27.85;39.61
69223;BME280;56514;51.816;-0.026;2023-08-12T14:16:03;100723.19;;;28.68;38.56
69223;BME280;56514;51.816;-0.026;2023-08-12T14:18:48;100714.13;;;29.60;36.27
69223;BME280;56514;51.816;-0.026;2023-08-12T14:21:33;100718.81;;;28.67;37.63